createdAt,value
2017-08-13T00:00:58.454Z,0
2017-08-13T00:01:58.807Z,0
2017-08-13T00:02:58.515Z,0
2017-08-13T00:03:58.844Z,0
2017-08-13T00:04:58.573Z,0
2017-08-13T00:05:58.946Z,0
2017-08-13T00:06:58.314Z,0
2017-08-13T00:07:58.966Z,0
2017-08-13T00:08:58.680Z,0
2017-08-13T00:09:59.022Z,0
2017-08-13T00:10:59.033Z,0
2017-08-13T00:11:58.454Z,0
2017-08-13T00:12:59.099Z,0
2017-08-13T00:13:58.515Z,0
2017-08-13T00:14:58.833Z,0
2017-08-13T00:15:59.165Z,0
2017-08-13T00:16:58.590Z,0
2017-08-13T00:17:58.920Z,0
2017-08-13T00:18:58.956Z,0
2017-08-13T00:19:59.292Z,0
2017-08-13T00:20:59.257Z,0
2017-08-13T00:21:59.030Z,0
2017-08-13T00:22:59.371Z,0
2017-08-13T00:23:59.420Z,0
2017-08-13T00:24:58.804Z,0
2017-08-13T00:25:59.706Z,0
2017-08-13T00:26:59.174Z,0
2017-08-13T00:27:58.887Z,0
2017-08-13T00:28:59.219Z,0
2017-08-13T00:29:59.249Z,0
2017-08-13T00:30:59.265Z,0
2017-08-13T00:31:59.306Z,0
2017-08-13T00:32:59.024Z,0
2017-08-13T00:33:59.672Z,0
2017-08-13T00:34:59.689Z,0
2017-08-13T00:35:59.660Z,0
2017-08-13T00:36:59.437Z,0
2017-08-13T00:37:59.459Z,0
2017-08-13T00:38:59.197Z,0
2017-08-13T00:39:59.528Z,0
2017-08-13T00:40:59.850Z,0
2017-08-13T00:41:59.886Z,0
2017-08-13T00:42:58.976Z,0
2017-08-13T00:43:59.620Z,0
2017-08-13T00:44:59.644Z,0
2017-08-13T00:45:59.690Z,0
2017-08-13T00:47:00.023Z,0
2017-08-13T00:47:59.741Z,0
2017-08-13T00:48:59.755Z,0
2017-08-13T00:50:00.104Z,0
2017-08-13T00:51:00.389Z,0
2017-08-13T00:52:00.161Z,0
2017-08-13T00:52:59.867Z,0
2017-08-13T00:54:00.220Z,0
2017-08-13T00:54:59.619Z,0
2017-08-13T00:55:59.945Z,0
2017-08-13T00:57:00.301Z,0
2017-08-13T00:58:00.003Z,0
2017-08-13T00:59:00.348Z,0
2017-08-13T01:00:00.365Z,0
2017-08-13T01:01:00.658Z,0
2017-08-13T01:02:00.433Z,0
2017-08-13T01:03:00.151Z,0
2017-08-13T01:04:00.488Z,0
2017-08-13T01:04:59.888Z,0
2017-08-13T01:06:00.165Z,0
2017-08-13T01:07:00.264Z,0
2017-08-13T01:08:00.594Z,0
2017-08-13T01:09:00.616Z,0
2017-08-13T01:10:00.651Z,0
2017-08-13T01:11:00.989Z,0
2017-08-13T01:12:00.394Z,0
2017-08-13T01:13:00.411Z,0
2017-08-13T01:14:00.133Z,0
2017-08-13T01:15:00.793Z,0
2017-08-13T01:16:01.069Z,0
2017-08-13T01:17:00.843Z,0
2017-08-13T01:18:00.559Z,0
2017-08-13T01:18:59.947Z,0
2017-08-13T01:20:00.932Z,0
2017-08-13T01:21:00.889Z,0
2017-08-13T01:22:00.974Z,0
2017-08-13T01:23:00.999Z,0
2017-08-13T01:24:00.716Z,0
2017-08-13T01:25:01.058Z,0
2017-08-13T01:26:00.756Z,0
2017-08-13T01:27:00.493Z,0
2017-08-13T01:28:00.822Z,0
2017-08-13T01:29:00.236Z,0
2017-08-13T01:30:01.193Z,0
2017-08-13T01:31:01.157Z,0
2017-08-13T01:32:00.938Z,0
2017-08-13T01:33:00.649Z,0
2017-08-13T01:34:00.992Z,0
2017-08-13T01:35:01.013Z,0
2017-08-13T01:36:01.341Z,0
2017-08-13T01:37:01.070Z,0
2017-08-13T01:38:01.094Z,0
2017-08-13T01:39:01.132Z,0
2017-08-13T01:40:01.475Z,0
2017-08-13T01:41:01.165Z,0
2017-08-13T01:42:01.207Z,0
2017-08-13T01:43:01.547Z,0
2017-08-13T01:44:00.940Z,0
2017-08-13T01:45:01.594Z,0
2017-08-13T01:46:00.685Z,0
2017-08-13T01:47:01.654Z,0
2017-08-13T01:48:01.682Z,0
2017-08-13T01:49:01.095Z,0
2017-08-13T01:50:01.103Z,0
2017-08-13T01:51:01.769Z,0
2017-08-13T01:52:01.182Z,0
2017-08-13T01:53:01.818Z,0
2017-08-13T01:54:01.527Z,0
2017-08-13T01:55:01.868Z,0
2017-08-13T01:56:01.582Z,0
2017-08-13T01:57:01.282Z,0
2017-08-13T01:58:01.635Z,0
2017-08-13T01:59:01.967Z,0
2017-08-13T02:00:01.696Z,0
2017-08-13T02:01:02.050Z,0
2017-08-13T02:02:01.729Z,0
2017-08-13T02:03:01.459Z,0
2017-08-13T02:04:02.107Z,0
2017-08-13T02:05:01.203Z,0
2017-08-13T02:06:01.544Z,0
2017-08-13T02:07:02.130Z,0
2017-08-13T02:08:01.910Z,0
2017-08-13T02:09:01.927Z,0
2017-08-13T02:10:02.271Z,0
2017-08-13T02:11:01.681Z,0
2017-08-13T02:12:02.322Z,0
2017-08-13T02:13:02.042Z,0
2017-08-13T02:14:02.086Z,0
2017-08-13T02:15:02.096Z,0
2017-08-13T02:16:02.424Z,0
2017-08-13T02:17:02.197Z,0
2017-08-13T02:18:02.486Z,0
2017-08-13T02:19:02.524Z,0
2017-08-13T02:20:02.540Z,0
2017-08-13T02:21:02.568Z,0
2017-08-13T02:22:02.541Z,0
2017-08-13T02:23:02.636Z,0
2017-08-13T02:24:02.339Z,0
2017-08-13T02:25:02.680Z,0
2017-08-13T02:26:02.084Z,0
2017-08-13T02:27:03.024Z,0
2017-08-13T02:28:02.766Z,0
2017-08-13T02:29:02.159Z,0
2017-08-13T02:30:02.819Z,0
2017-08-13T02:31:02.227Z,0
2017-08-13T02:32:03.120Z,0
2017-08-13T02:33:02.590Z,0
2017-08-13T02:34:02.620Z,0
2017-08-13T02:35:02.946Z,0
2017-08-13T02:36:02.972Z,0
2017-08-13T02:37:02.430Z,0
2017-08-13T02:38:03.054Z,0
2017-08-13T02:39:03.071Z,0
2017-08-13T02:40:03.084Z,0
2017-08-13T02:41:03.113Z,0
2017-08-13T02:42:03.093Z,0
2017-08-13T02:43:02.857Z,0
2017-08-13T02:44:02.882Z,0
2017-08-13T02:45:02.914Z,0
2017-08-13T02:46:02.938Z,0
2017-08-13T02:47:03.205Z,0
2017-08-13T02:48:02.707Z,0
2017-08-13T02:49:03.046Z,0
2017-08-13T02:50:03.047Z,0
2017-08-13T02:51:03.380Z,0
2017-08-13T02:52:03.713Z,0
2017-08-13T02:53:02.814Z,0
2017-08-13T02:54:02.839Z,0
2017-08-13T02:55:03.179Z,0
2017-08-13T02:56:03.199Z,0
2017-08-13T02:57:03.893Z,0
2017-08-13T02:58:03.569Z,0
2017-08-13T02:59:03.283Z,0
2017-08-13T03:00:03.630Z,0
2017-08-13T03:01:03.027Z,0
2017-08-13T03:02:03.617Z,0
2017-08-13T03:03:03.393Z,0
2017-08-13T03:04:03.114Z,0
2017-08-13T03:05:03.448Z,0
2017-08-13T03:06:03.477Z,0
2017-08-13T03:07:03.764Z,0
2017-08-13T03:08:03.832Z,0
2017-08-13T03:09:03.555Z,0
2017-08-13T03:10:03.583Z,0
2017-08-13T03:11:03.607Z,0
2017-08-13T03:12:03.945Z,0
2017-08-13T03:13:03.657Z,0
2017-08-13T03:14:03.370Z,0
2017-08-13T03:15:03.399Z,0
2017-08-13T03:16:03.427Z,0
2017-08-13T03:17:03.760Z,0
2017-08-13T03:18:04.108Z,0
2017-08-13T03:19:04.140Z,0
2017-08-13T03:20:03.859Z,0
2017-08-13T03:21:04.196Z,0
2017-08-13T03:22:04.156Z,0
2017-08-13T03:23:03.922Z,0
2017-08-13T03:24:03.642Z,0
2017-08-13T03:25:03.683Z,0
2017-08-13T03:26:04.016Z,0
2017-08-13T03:27:04.604Z,0
2017-08-13T03:28:04.069Z,0
2017-08-13T03:29:04.084Z,0
2017-08-13T03:30:04.436Z,0
2017-08-13T03:31:03.854Z,0
2017-08-13T03:32:04.749Z,0
2017-08-13T03:33:04.196Z,0
2017-08-13T03:34:04.218Z,0
2017-08-13T03:35:03.943Z,0
2017-08-13T03:36:03.968Z,0
2017-08-13T03:37:04.925Z,0
2017-08-13T03:38:04.653Z,0
2017-08-13T03:39:04.054Z,0
2017-08-13T03:40:04.707Z,0
2017-08-13T03:41:04.435Z,0
2017-08-13T03:42:04.712Z,0
2017-08-13T03:43:04.476Z,0
2017-08-13T03:44:04.802Z,0
2017-08-13T03:45:04.837Z,0
2017-08-13T03:46:04.555Z,0
2017-08-13T03:47:04.836Z,0
2017-08-13T03:48:04.917Z,0
2017-08-13T03:49:04.638Z,0
2017-08-13T03:50:04.367Z,0
2017-08-13T03:51:04.692Z,0
2017-08-13T03:52:04.704Z,0
2017-08-13T03:53:04.740Z,0
2017-08-13T03:54:04.769Z,0
2017-08-13T03:55:04.794Z,0
2017-08-13T03:56:04.823Z,0
2017-08-13T03:57:05.156Z,0
2017-08-13T03:58:04.889Z,0
2017-08-13T03:59:04.594Z,0
2017-08-13T04:00:04.311Z,0
2017-08-13T04:01:05.279Z,0
2017-08-13T04:02:05.551Z,4
2017-08-13T04:03:05.013Z,4
2017-08-13T04:04:04.732Z,0
2017-08-13T04:05:05.068Z,4
2017-08-13T04:06:05.105Z,4
2017-08-13T04:07:05.123Z,4
2017-08-13T04:08:04.837Z,4
2017-08-13T04:09:05.174Z,8
2017-08-13T04:10:05.211Z,4
2017-08-13T04:11:05.543Z,8
2017-08-13T04:12:04.945Z,8
2017-08-13T04:13:05.839Z,12
2017-08-13T04:14:05.317Z,12
2017-08-13T04:15:05.029Z,16
2017-08-13T04:16:05.363Z,12
2017-08-13T04:17:05.400Z,16
2017-08-13T04:18:05.676Z,20
2017-08-13T04:19:05.145Z,20
2017-08-13T04:20:05.467Z,24
2017-08-13T04:21:05.818Z,24
2017-08-13T04:22:05.840Z,28
2017-08-13T04:23:06.216Z,28
2017-08-13T04:24:05.894Z,28
2017-08-13T04:25:05.602Z,32
2017-08-13T04:26:05.331Z,40
2017-08-13T04:27:05.671Z,44
2017-08-13T04:28:05.931Z,44
2017-08-13T04:29:06.025Z,44
2017-08-13T04:30:05.739Z,40
2017-08-13T04:31:05.766Z,40
2017-08-13T04:32:05.792Z,44
2017-08-13T04:33:06.427Z,64
2017-08-13T04:34:06.161Z,72
2017-08-13T04:35:06.186Z,72
2017-08-13T04:36:05.899Z,72
2017-08-13T04:37:05.624Z,72
2017-08-13T04:38:06.569Z,100
2017-08-13T04:39:06.315Z,116
2017-08-13T04:40:05.694Z,112
2017-08-13T04:41:06.039Z,104
2017-08-13T04:42:06.075Z,112
2017-08-13T04:43:06.662Z,116
2017-08-13T04:44:06.445Z,116
2017-08-13T04:45:06.457Z,132
2017-08-13T04:46:06.483Z,128
2017-08-13T04:47:06.516Z,132
2017-08-13T04:48:06.865Z,144
2017-08-13T04:49:05.945Z,160
2017-08-13T04:50:06.288Z,176
2017-08-13T04:51:06.302Z,188
2017-08-13T04:52:06.339Z,196
2017-08-13T04:53:06.607Z,200
2017-08-13T04:54:06.076Z,208
2017-08-13T04:55:06.410Z,224
2017-08-13T04:56:06.437Z,244
2017-08-13T04:57:06.471Z,264
2017-08-13T04:58:07.067Z,296
2017-08-13T04:59:06.542Z,336
2017-08-13T05:00:06.866Z,360
2017-08-13T05:01:06.885Z,360
2017-08-13T05:02:06.303Z,348
2017-08-13T05:03:06.936Z,348
2017-08-13T05:04:06.345Z,348
2017-08-13T05:05:06.687Z,320
2017-08-13T05:06:06.709Z,316
2017-08-13T05:07:06.747Z,320
2017-08-13T05:08:07.064Z,328
2017-08-13T05:09:06.818Z,336
2017-08-13T05:10:06.817Z,336
2017-08-13T05:11:06.538Z,332
2017-08-13T05:12:07.189Z,304
2017-08-13T05:13:07.231Z,284
2017-08-13T05:14:07.262Z,244
2017-08-13T05:15:06.333Z,228
2017-08-13T05:16:06.674Z,224
2017-08-13T05:17:07.007Z,228
2017-08-13T05:18:07.656Z,204
2017-08-13T05:19:07.069Z,208
2017-08-13T05:20:07.098Z,212
2017-08-13T05:21:07.117Z,216
2017-08-13T05:22:07.454Z,224
2017-08-13T05:23:07.798Z,204
2017-08-13T05:24:06.892Z,204
2017-08-13T05:25:07.537Z,220
2017-08-13T05:26:07.269Z,268
2017-08-13T05:27:07.287Z,312
2017-08-13T05:28:07.564Z,380
2017-08-13T05:29:07.020Z,408
2017-08-13T05:30:07.053Z,392
2017-08-13T05:31:07.386Z,368
2017-08-13T05:32:07.728Z,372
2017-08-13T05:33:07.743Z,412
2017-08-13T05:34:07.473Z,480
2017-08-13T05:35:07.503Z,536
2017-08-13T05:36:07.530Z,640
2017-08-13T05:37:07.242Z,692
2017-08-13T05:38:07.939Z,668
2017-08-13T05:39:07.321Z,616
2017-08-13T05:40:07.633Z,600
2017-08-13T05:41:07.663Z,644
2017-08-13T05:42:07.695Z,716
2017-08-13T05:43:08.266Z,728
2017-08-13T05:44:07.753Z,624
2017-08-13T05:45:07.769Z,548
2017-08-13T05:46:07.798Z,488
2017-08-13T05:47:07.830Z,416
2017-08-13T05:48:07.851Z,376
2017-08-13T05:49:07.892Z,364
2017-08-13T05:50:08.217Z,352
2017-08-13T05:51:07.951Z,320
2017-08-13T05:52:08.269Z,276
2017-08-13T05:53:08.299Z,272
2017-08-13T05:54:08.016Z,260
2017-08-13T05:55:07.729Z,208
2017-08-13T05:56:08.074Z,200
2017-08-13T05:57:08.094Z,308
2017-08-13T05:58:08.113Z,328
2017-08-13T05:59:08.143Z,292
2017-08-13T06:00:08.505Z,232
2017-08-13T06:01:08.210Z,180
2017-08-13T06:02:08.234Z,184
2017-08-13T06:03:07.953Z,216
2017-08-13T06:04:08.601Z,200
2017-08-13T06:05:08.313Z,200
2017-08-13T06:06:08.022Z,220
2017-08-13T06:07:08.054Z,252
2017-08-13T06:08:07.779Z,304
2017-08-13T06:09:08.405Z,336
2017-08-13T06:10:08.152Z,352
2017-08-13T06:11:08.477Z,324
2017-08-13T06:12:08.499Z,288
2017-08-13T06:13:08.247Z,264
2017-08-13T06:14:08.808Z,252
2017-08-13T06:15:08.906Z,268
2017-08-13T06:16:08.614Z,280
2017-08-13T06:17:08.954Z,300
2017-08-13T06:18:08.983Z,340
2017-08-13T06:19:09.044Z,368
2017-08-13T06:20:09.033Z,452
2017-08-13T06:21:09.056Z,524
2017-08-13T06:22:09.082Z,584
2017-08-13T06:23:09.114Z,596
2017-08-13T06:24:09.100Z,572
2017-08-13T06:25:08.856Z,584
2017-08-13T06:26:08.890Z,620
2017-08-13T06:27:08.914Z,752
2017-08-13T06:28:08.936Z,804
2017-08-13T06:29:09.223Z,796
2017-08-13T06:30:08.676Z,760
2017-08-13T06:31:09.018Z,800
2017-08-13T06:32:08.749Z,816
2017-08-13T06:33:09.381Z,992
2017-08-13T06:34:09.395Z,1068
2017-08-13T06:35:09.128Z,1008
2017-08-13T06:36:09.153Z,1032
2017-08-13T06:37:08.866Z,1160
2017-08-13T06:38:09.512Z,1320
2017-08-13T06:39:09.526Z,1392
2017-08-13T06:40:09.568Z,1452
2017-08-13T06:41:09.295Z,1512
2017-08-13T06:42:09.623Z,1508
2017-08-13T06:43:09.031Z,1488
2017-08-13T06:44:09.676Z,1468
2017-08-13T06:45:09.701Z,1380
2017-08-13T06:46:09.129Z,1388
2017-08-13T06:47:09.454Z,1428
2017-08-13T06:48:09.507Z,1208
2017-08-13T06:49:09.490Z,1084
2017-08-13T06:50:09.857Z,1060
2017-08-13T06:51:09.557Z,1064
2017-08-13T06:52:09.891Z,1064
2017-08-13T06:53:09.624Z,1128
2017-08-13T06:54:09.936Z,1348
2017-08-13T06:55:09.977Z,1568
2017-08-13T06:56:09.385Z,1480
2017-08-13T06:57:09.724Z,1336
2017-08-13T06:58:10.062Z,1376
2017-08-13T06:59:10.079Z,1696
2017-08-13T07:00:10.134Z,2116
2017-08-13T07:01:10.149Z,2164
2017-08-13T07:02:09.859Z,2240
2017-08-13T07:03:09.889Z,2260
2017-08-13T07:04:10.219Z,2376
2017-08-13T07:05:09.945Z,2396
2017-08-13T07:06:09.663Z,2556
2017-08-13T07:07:09.994Z,2516
2017-08-13T07:08:10.042Z,2508
2017-08-13T07:09:10.668Z,2608
2017-08-13T07:10:10.388Z,2388
2017-08-13T07:11:09.481Z,2384
2017-08-13T07:12:09.518Z,2368
2017-08-13T07:13:09.878Z,2132
2017-08-13T07:14:10.861Z,2020
2017-08-13T07:15:10.213Z,1816
2017-08-13T07:16:09.943Z,1508
2017-08-13T07:17:10.270Z,1372
2017-08-13T07:18:10.307Z,1344
2017-08-13T07:19:10.623Z,1256
2017-08-13T07:20:10.044Z,1280
2017-08-13T07:21:10.705Z,1268
2017-08-13T07:22:10.098Z,1284
2017-08-13T07:23:10.423Z,1252
2017-08-13T07:24:10.712Z,1316
2017-08-13T07:25:10.481Z,1632
2017-08-13T07:26:10.829Z,1856
2017-08-13T07:27:10.224Z,1852
2017-08-13T07:28:10.889Z,1956
2017-08-13T07:29:10.582Z,2500
2017-08-13T07:30:10.932Z,3008
2017-08-13T07:31:10.968Z,4216
2017-08-13T07:32:10.681Z,4208
2017-08-13T07:33:10.715Z,3292
2017-08-13T07:34:11.004Z,2952
2017-08-13T07:35:10.751Z,3028
2017-08-13T07:36:10.473Z,2472
2017-08-13T07:37:11.130Z,2820
2017-08-13T07:38:10.845Z,2872
2017-08-13T07:39:11.119Z,3060
2017-08-13T07:40:11.216Z,3288
2017-08-13T07:41:11.246Z,3220
2017-08-13T07:42:10.958Z,2620
2017-08-13T07:43:11.013Z,3204
2017-08-13T07:44:11.311Z,3500
2017-08-13T07:45:11.032Z,2712
2017-08-13T07:46:10.753Z,1936
2017-08-13T07:47:11.098Z,1732
2017-08-13T07:48:11.143Z,1708
2017-08-13T07:49:11.399Z,2252
2017-08-13T07:50:11.169Z,2524
2017-08-13T07:51:10.889Z,2132
2017-08-13T07:52:11.235Z,2040
2017-08-13T07:53:11.278Z,2208
2017-08-13T07:54:11.538Z,2560
2017-08-13T07:55:11.309Z,3556
2017-08-13T07:56:11.333Z,3900
2017-08-13T07:57:11.062Z,3824
2017-08-13T07:58:11.394Z,4524
2017-08-13T07:59:11.411Z,4900
2017-08-13T08:00:11.134Z,4356
2017-08-13T08:01:11.789Z,4400
2017-08-13T08:02:11.826Z,3720
2017-08-13T08:03:11.836Z,2708
2017-08-13T08:04:12.179Z,2680
2017-08-13T08:05:11.590Z,3480
2017-08-13T08:06:11.613Z,4008
2017-08-13T08:07:11.642Z,3464
2017-08-13T08:08:11.362Z,3460
2017-08-13T08:09:11.703Z,3660
2017-08-13T08:10:12.053Z,3932
2017-08-13T08:11:11.445Z,3488
2017-08-13T08:12:12.094Z,3604
2017-08-13T08:13:11.814Z,4156
2017-08-13T08:14:11.212Z,4564
2017-08-13T08:15:12.247Z,3948
2017-08-13T08:16:11.892Z,3524
2017-08-13T08:17:11.925Z,2848
2017-08-13T08:18:12.263Z,2188
2017-08-13T08:19:11.987Z,2012
2017-08-13T08:20:11.940Z,2168
2017-08-13T08:21:11.717Z,1892
2017-08-13T08:22:12.370Z,1840
2017-08-13T08:23:12.087Z,1732
2017-08-13T08:24:12.426Z,1952
2017-08-13T08:25:11.815Z,1816
2017-08-13T08:26:12.181Z,1704
2017-08-13T08:27:12.202Z,1620
2017-08-13T08:28:12.531Z,1624
2017-08-13T08:29:12.559Z,1704
2017-08-13T08:30:12.888Z,2108
2017-08-13T08:31:12.308Z,2192
2017-08-13T08:32:12.023Z,2388
2017-08-13T08:33:12.386Z,2676
2017-08-13T08:34:12.707Z,3216
2017-08-13T08:35:12.980Z,3628
2017-08-13T08:36:12.748Z,3740
2017-08-13T08:37:12.468Z,3392
2017-08-13T08:38:12.825Z,2952
2017-08-13T08:39:12.843Z,2320
2017-08-13T08:40:12.195Z,2220
2017-08-13T08:41:12.580Z,2644
2017-08-13T08:42:12.637Z,2628
2017-08-13T08:43:12.639Z,3268
2017-08-13T08:44:12.396Z,3396
2017-08-13T08:45:12.368Z,3788
2017-08-13T08:46:12.724Z,3376
2017-08-13T08:47:12.752Z,3568
2017-08-13T08:48:12.775Z,4064
2017-08-13T08:49:13.115Z,4616
2017-08-13T08:50:13.132Z,5484
2017-08-13T08:51:13.173Z,6088
2017-08-13T08:52:12.893Z,5816
2017-08-13T08:53:12.921Z,5548
2017-08-13T08:54:13.257Z,5248
2017-08-13T08:55:13.637Z,5028
2017-08-13T08:56:13.001Z,5420
2017-08-13T08:57:13.033Z,5796
2017-08-13T08:58:12.776Z,5920
2017-08-13T08:59:13.091Z,5696
2017-08-13T09:00:13.717Z,5692
2017-08-13T09:01:13.141Z,5572
2017-08-13T09:02:13.485Z,5204
2017-08-13T09:03:13.511Z,5004
2017-08-13T09:04:12.913Z,4864
2017-08-13T09:05:13.187Z,4536
2017-08-13T09:06:13.608Z,4024
2017-08-13T09:07:13.634Z,3780
2017-08-13T09:08:13.341Z,3804
2017-08-13T09:09:13.685Z,3400
2017-08-13T09:10:14.011Z,3268
2017-08-13T09:11:13.756Z,3144
2017-08-13T09:12:13.757Z,3000
2017-08-13T09:13:13.162Z,3016
2017-08-13T09:14:13.836Z,3628
2017-08-13T09:15:13.835Z,3724
2017-08-13T09:16:13.552Z,3868
2017-08-13T09:17:13.900Z,4340
2017-08-13T09:18:13.624Z,5568
2017-08-13T09:19:13.642Z,6180
2017-08-13T09:20:14.284Z,6752
2017-08-13T09:21:13.704Z,6920
2017-08-13T09:22:13.730Z,6520
2017-08-13T09:23:13.753Z,5928
2017-08-13T09:24:13.783Z,5972
2017-08-13T09:25:14.177Z,5824
2017-08-13T09:26:14.153Z,6000
2017-08-13T09:27:13.890Z,6604
2017-08-13T09:28:14.210Z,7148
2017-08-13T09:29:14.243Z,7216
2017-08-13T09:30:14.255Z,5544
2017-08-13T09:31:13.673Z,5756
2017-08-13T09:32:14.316Z,5576
2017-08-13T09:33:14.350Z,5672
2017-08-13T09:34:14.083Z,5588
2017-08-13T09:35:14.391Z,5580
2017-08-13T09:36:13.812Z,5084
2017-08-13T09:37:14.473Z,5240
2017-08-13T09:38:13.874Z,5784
2017-08-13T09:39:14.213Z,6308
2017-08-13T09:40:14.547Z,6924
2017-08-13T09:41:14.587Z,7604
2017-08-13T09:42:14.610Z,7220
2017-08-13T09:43:14.332Z,6940
2017-08-13T09:44:14.346Z,6700
2017-08-13T09:45:14.323Z,6764
2017-08-13T09:46:14.412Z,6904
2017-08-13T09:47:14.125Z,6900
2017-08-13T09:48:14.457Z,6768
2017-08-13T09:49:14.489Z,6828
2017-08-13T09:50:15.087Z,6340
2017-08-13T09:51:14.248Z,5932
2017-08-13T09:52:14.572Z,5212
2017-08-13T09:53:14.606Z,5868
2017-08-13T09:54:14.950Z,5876
2017-08-13T09:55:14.647Z,5800
2017-08-13T09:56:14.688Z,6324
2017-08-13T09:57:15.032Z,6280
2017-08-13T09:58:14.456Z,6192
2017-08-13T09:59:15.084Z,5060
2017-08-13T10:00:15.099Z,5516
2017-08-13T10:01:14.839Z,6352
2017-08-13T10:02:15.169Z,7080
2017-08-13T10:03:15.198Z,6320
2017-08-13T10:04:14.610Z,5652
2017-08-13T10:05:15.243Z,5016
2017-08-13T10:06:15.287Z,3900
2017-08-13T10:07:15.313Z,4112
2017-08-13T10:08:15.337Z,3308
2017-08-13T10:09:15.054Z,3216
2017-08-13T10:10:15.698Z,3300
2017-08-13T10:11:15.115Z,3224
2017-08-13T10:12:15.136Z,3536
2017-08-13T10:13:15.485Z,3688
2017-08-13T10:14:14.879Z,3192
2017-08-13T10:15:15.207Z,2808
2017-08-13T10:16:14.699Z,2608
2017-08-13T10:17:15.589Z,2740
2017-08-13T10:18:15.066Z,2888
2017-08-13T10:19:15.028Z,2960
2017-08-13T10:20:15.664Z,3048
2017-08-13T10:21:15.099Z,2976
2017-08-13T10:22:15.420Z,3004
2017-08-13T10:23:15.451Z,2960
2017-08-13T10:24:15.166Z,2972
2017-08-13T10:25:15.755Z,3096
2017-08-13T10:26:15.855Z,3796
2017-08-13T10:27:15.869Z,4844
2017-08-13T10:28:15.583Z,4520
2017-08-13T10:29:15.614Z,4176
2017-08-13T10:30:16.273Z,4264
2017-08-13T10:31:15.992Z,4272
2017-08-13T10:32:15.710Z,3756
2017-08-13T10:33:15.729Z,3632
2017-08-13T10:34:15.766Z,4112
2017-08-13T10:35:16.098Z,4312
2017-08-13T10:36:16.135Z,4816
2017-08-13T10:37:15.849Z,5540
2017-08-13T10:38:16.184Z,6052
2017-08-13T10:39:15.911Z,6164
2017-08-13T10:40:15.930Z,6516
2017-08-13T10:41:16.546Z,7660
2017-08-13T10:42:15.992Z,7268
2017-08-13T10:43:15.697Z,7444
2017-08-13T10:44:16.353Z,8076
2017-08-13T10:45:16.072Z,9264
2017-08-13T10:46:16.682Z,11248
2017-08-13T10:47:16.124Z,11816
2017-08-13T10:48:16.469Z,9568
2017-08-13T10:49:16.186Z,8192
2017-08-13T10:50:16.521Z,8188
2017-08-13T10:51:16.223Z,8356
2017-08-13T10:52:16.259Z,9524
2017-08-13T10:53:16.294Z,9660
2017-08-13T10:54:16.321Z,10364
2017-08-13T10:55:16.678Z,9128
2017-08-13T10:56:16.370Z,7816
2017-08-13T10:57:16.408Z,5900
2017-08-13T10:58:16.433Z,4632
2017-08-13T10:59:16.462Z,4036
2017-08-13T11:00:16.495Z,3452
2017-08-13T11:01:16.777Z,2900
2017-08-13T11:02:16.860Z,2824
2017-08-13T11:03:16.573Z,2808
2017-08-13T11:04:16.605Z,2692
2017-08-13T11:05:16.639Z,2696
2017-08-13T11:06:16.686Z,2876
2017-08-13T11:07:17.000Z,2920
2017-08-13T11:08:16.410Z,2652
2017-08-13T11:09:16.445Z,2204
2017-08-13T11:10:17.082Z,1932
2017-08-13T11:11:16.791Z,1992
2017-08-13T11:12:17.164Z,2212
2017-08-13T11:13:17.164Z,2552
2017-08-13T11:14:16.886Z,2948
2017-08-13T11:15:16.606Z,3428
2017-08-13T11:16:16.931Z,3792
2017-08-13T11:17:17.288Z,4056
2017-08-13T11:18:17.010Z,4380
2017-08-13T11:19:17.346Z,4524
2017-08-13T11:20:16.741Z,4364
2017-08-13T11:21:17.029Z,4076
2017-08-13T11:22:17.116Z,4180
2017-08-13T11:23:17.145Z,4480
2017-08-13T11:24:17.170Z,4372
2017-08-13T11:25:17.198Z,3724
2017-08-13T11:26:17.530Z,3216
2017-08-13T11:27:17.268Z,3112
2017-08-13T11:28:17.277Z,3096
2017-08-13T11:29:17.309Z,3096
2017-08-13T11:30:17.654Z,3068
2017-08-13T11:31:17.999Z,3352
2017-08-13T11:32:17.708Z,4252
2017-08-13T11:33:17.745Z,6184
2017-08-13T11:34:17.454Z,8240
2017-08-13T11:35:17.167Z,7312
2017-08-13T11:36:18.127Z,6604
2017-08-13T11:37:17.538Z,6240
2017-08-13T11:38:16.933Z,6184
2017-08-13T11:39:17.589Z,5924
2017-08-13T11:40:17.931Z,5360
2017-08-13T11:41:17.903Z,5276
2017-08-13T11:42:17.675Z,5036
2017-08-13T11:43:17.722Z,4656
2017-08-13T11:44:17.732Z,4440
2017-08-13T11:45:17.777Z,4628
2017-08-13T11:46:17.415Z,5212
2017-08-13T11:47:18.127Z,5304
2017-08-13T11:48:17.851Z,5052
2017-08-13T11:49:17.870Z,5024
2017-08-13T11:50:17.901Z,5140
2017-08-13T11:51:17.911Z,5284
2017-08-13T11:52:17.644Z,5340
2017-08-13T11:53:17.989Z,6336
2017-08-13T11:54:17.708Z,6748
2017-08-13T11:55:18.365Z,6104
2017-08-13T11:56:18.635Z,5264
2017-08-13T11:57:18.417Z,5648
2017-08-13T11:58:18.131Z,6296
2017-08-13T11:59:18.157Z,6644
2017-08-13T12:00:18.204Z,7032
2017-08-13T12:01:18.518Z,6520
2017-08-13T12:02:18.548Z,5944
2017-08-13T12:03:18.278Z,6160
2017-08-13T12:04:18.610Z,5968
2017-08-13T12:05:18.323Z,4792
2017-08-13T12:06:18.045Z,4136
2017-08-13T12:07:18.704Z,3780
2017-08-13T12:08:18.733Z,3616
2017-08-13T12:09:18.436Z,3816
2017-08-13T12:10:18.468Z,4188
2017-08-13T12:11:18.180Z,4096
2017-08-13T12:12:18.519Z,3628
2017-08-13T12:13:18.861Z,3232
2017-08-13T12:14:18.581Z,3172
2017-08-13T12:15:18.295Z,3308
2017-08-13T12:16:18.639Z,3200
2017-08-13T12:17:18.664Z,3396
2017-08-13T12:18:18.387Z,4216
2017-08-13T12:19:19.032Z,4056
2017-08-13T12:20:18.474Z,3624
2017-08-13T12:21:19.086Z,3136
2017-08-13T12:22:18.811Z,2944
2017-08-13T12:23:19.158Z,2744
2017-08-13T12:24:18.885Z,2684
2017-08-13T12:25:19.197Z,2736
2017-08-13T12:26:18.915Z,2484
2017-08-13T12:27:18.955Z,2172
2017-08-13T12:28:18.972Z,2296
2017-08-13T12:29:19.024Z,2596
2017-08-13T12:30:19.337Z,3204
2017-08-13T12:31:19.363Z,4052
2017-08-13T12:32:19.398Z,4304
2017-08-13T12:33:19.429Z,4968
2017-08-13T12:34:18.825Z,5372
2017-08-13T12:35:19.173Z,5376
2017-08-13T12:36:19.511Z,5208
2017-08-13T12:37:19.533Z,4716
2017-08-13T12:38:18.937Z,4392
2017-08-13T12:39:19.288Z,4172
2017-08-13T12:40:19.622Z,4180
2017-08-13T12:41:19.659Z,4108
2017-08-13T12:42:19.681Z,3876
2017-08-13T12:43:19.400Z,3720
2017-08-13T12:44:19.733Z,4200
2017-08-13T12:45:19.447Z,4844
2017-08-13T12:46:18.855Z,4708
2017-08-13T12:47:20.123Z,4240
2017-08-13T12:48:19.540Z,4832
2017-08-13T12:49:19.881Z,4604
2017-08-13T12:50:19.900Z,4316
2017-08-13T12:51:19.631Z,4896
2017-08-13T12:52:19.944Z,5816
2017-08-13T12:53:19.992Z,6356
2017-08-13T12:54:20.014Z,7408
2017-08-13T12:55:20.044Z,11928
2017-08-13T12:56:20.078Z,14052
2017-08-13T12:57:20.350Z,13000
2017-08-13T12:58:20.300Z,12548
2017-08-13T12:59:19.562Z,9316
2017-08-13T13:00:19.862Z,10976
2017-08-13T13:01:19.591Z,12012
2017-08-13T13:02:19.915Z,14212
2017-08-13T13:03:20.267Z,15476
2017-08-13T13:04:19.997Z,16388
2017-08-13T13:05:19.701Z,16888
2017-08-13T13:06:20.378Z,19520
2017-08-13T13:07:20.686Z,15844
2017-08-13T13:08:20.432Z,11736
2017-08-13T13:09:19.818Z,9424
2017-08-13T13:10:19.846Z,7392
2017-08-13T13:11:19.891Z,8108
2017-08-13T13:12:20.516Z,6788
2017-08-13T13:13:20.562Z,5616
2017-08-13T13:14:20.277Z,4984
2017-08-13T13:15:20.374Z,4232
2017-08-13T13:16:20.329Z,3712
2017-08-13T13:17:20.035Z,3588
2017-08-13T13:18:20.076Z,3732
2017-08-13T13:19:19.784Z,3612
2017-08-13T13:20:20.138Z,3156
2017-08-13T13:21:20.479Z,3012
2017-08-13T13:22:20.491Z,3168
2017-08-13T13:23:20.849Z,3352
2017-08-13T13:24:20.878Z,3776
2017-08-13T13:25:20.905Z,4268
2017-08-13T13:26:20.617Z,3396
2017-08-13T13:27:20.584Z,2876
2017-08-13T13:28:20.673Z,2788
2017-08-13T13:29:21.019Z,2524
2017-08-13T13:30:20.421Z,2384
2017-08-13T13:31:21.072Z,2164
2017-08-13T13:32:21.391Z,2196
2017-08-13T13:33:20.216Z,2280
2017-08-13T13:34:20.848Z,2212
2017-08-13T13:35:21.186Z,2248
2017-08-13T13:36:20.898Z,2416
2017-08-13T13:37:21.180Z,2588
2017-08-13T13:38:21.264Z,2784
2017-08-13T13:39:21.024Z,3120
2017-08-13T13:40:21.065Z,3232
2017-08-13T13:41:21.390Z,3188
2017-08-13T13:42:21.319Z,3168
2017-08-13T13:43:21.407Z,3540
2017-08-13T13:44:21.125Z,3908
2017-08-13T13:45:20.842Z,4152
2017-08-13T13:46:21.494Z,3752
2017-08-13T13:47:21.467Z,3156
2017-08-13T13:48:21.234Z,3680
2017-08-13T13:49:21.593Z,4624